Flight Track Log - Related Links

Times and Time Zones

All times are in EDT time to prevent confusion due to time zone crossing. See the N84501 flight status page for this flight to view local times or setup timezone preferences in your user account.

Time Position Orientation Groundspeed Altitude Reporting Facility
EDT Latitude Longitude Course Direction KTS MPH feet Rate Location/Type
Mon 02:04:48 PM 33.8333 -118.1667 120° Southeast 100 115 800  Level Southern California TRACON
Mon 02:05:43 PM 33.8500 -118.1833 320° Northwest 115 132 1,500 678 Climbing Southern California TRACON
Mon 02:06:43 PM 33.8667 -118.1500 59° Northeast 115 132 2,100 400 Climbing Southern California TRACON
Mon 02:07:43 PM 33.8667 -118.1167 90° East 121 139 2,300 198 Climbing Southern California TRACON
Mon 02:08:44 PM 33.8667 -118.0667 90° East 118 136 2,500 298 Climbing Southern California TRACON
Mon 02:09:44 PM 33.8833 -118.0333 59° Northeast 113 130 2,900 381 Climbing Southern California TRACON
Mon 02:10:00 PM -19.9263 -160.1377 120° Southeast  Level Estimated
Mon 02:10:50 PM 33.8500 -118.0167 157° South 104 120 3,300  Level Southern California TRACON
Mon 02:11:44 PM 33.8333 -118.0000 140° Southeast 106 122 3,800 474 Climbing Southern California TRACON
Mon 02:12:44 PM 33.8500 -117.9500 68° East 114 131 4,200 450 Climbing Southern California TRACON
Mon 02:13:44 PM 33.8667 -117.9167 59° Northeast 108 124 4,700 450 Climbing Southern California TRACON
Mon 02:14:44 PM 33.8667 -117.8833 90° East 107 123 5,100 397 Climbing Southern California TRACON
Mon 02:15:45 PM 33.8667 -117.8500 90° East 110 127 5,500 397 Climbing Southern California TRACON
Mon 02:16:45 PM 33.8667 -117.8167 90° East 107 123 5,900 400 Climbing Southern California TRACON
Mon 02:17:45 PM 33.8833 -117.7833 59° Northeast 106 122 6,300 381 Climbing Southern California TRACON
Mon 02:18:51 PM 33.8833 -117.7500 90° East 108 124 6,700 429 Climbing Southern California TRACON
Mon 02:19:51 PM 33.8833 -117.7167 90° East 108 124 7,200 500 Climbing Southern California TRACON
Mon 02:20:51 PM 33.9000 -117.6667 68° East 110 127 7,700 450 Climbing Southern California TRACON
Mon 02:21:51 PM 33.9000 -117.6333 90° East 111 128 8,100 400 Climbing Southern California TRACON
Mon 02:22:51 PM 33.9000 -117.6000 90° East 110 127 8,500 421 Climbing Southern California TRACON
Mon 02:23:45 PM 33.9167 -117.5667 59° Northeast 111 128 8,900 400 Climbing Southern California TRACON
Mon 02:24:51 PM 33.9167 -117.5333 90° East 114 131 9,300 381 Climbing Southern California TRACON
Mon 02:25:51 PM 33.9333 -117.5000 59° Northeast 109 125 9,700 365 Climbing Southern California TRACON
Mon 02:26:46 PM 33.9333 -117.4667 90° East 109 125 10,000 368 Climbing Southern California TRACON
Mon 02:27:45 PM 33.9333 -117.4333 90° East 110 127 10,400 350 Climbing Southern California TRACON
Mon 02:28:46 PM 33.9500 -117.3833 68° East 113 130 10,700 333 Climbing Southern California TRACON
Mon 02:29:51 PM 33.9500 -117.3500 90° East 110 127 11,100 333 Climbing Southern California TRACON
Mon 02:30:52 PM 33.9500 -117.3167 90° East 112 129 11,400 248 Climbing Southern California TRACON
Mon 02:31:52 PM 33.9667 -117.2833 59° Northeast 116 133 11,600 105 Climbing Southern California TRACON
Mon 02:32:46 PM 33.9667 -117.2500 90° East 116 133 11,600 53 Level Southern California TRACON
Mon 02:33:46 PM 33.9667 -117.2000 90° East 117 135 11,700 48 Climbing Southern California TRACON
Mon 02:34:52 PM 33.9667 -117.1667 90° East 120 138 11,700 -100 Level Southern California TRACON
Mon 02:35:46 PM 33.9833 -117.1167 68° East 131 151 11,500 -150 Descending Southern California TRACON
Mon 02:36:52 PM 33.9833 -117.0833 90° East 124 143 11,400 -95 Descending Southern California TRACON
Mon 02:37:52 PM 33.9833 -117.0333 90° East 121 139 11,300 -100 Descending Southern California TRACON
Mon 02:38:52 PM 33.9833 -117.0000 90° East 118 136 11,200 -50 Descending Southern California TRACON
Mon 02:39:53 PM 33.9833 -116.9500 90° East 124 143 11,200 -99 Level Southern California TRACON
Mon 02:40:53 PM 33.9833 -116.9167 90° East 121 139 11,000 -150 Descending Southern California TRACON
Mon 02:41:53 PM 33.9833 -116.8667 90° East 122 140 10,900 -200 Descending Southern California TRACON
Mon 02:42:53 PM 33.9833 -116.8333 90° East 128 147 10,600 -198 Descending Southern California TRACON
Mon 02:43:54 PM 34.0000 -116.7833 68° East 137 158 10,500 -99 Descending Southern California TRACON
Mon 02:44:54 PM 34.0000 -116.7500 90° East 130 150 10,400 -67 Descending Southern California TRACON
Mon 02:45:24 PM 34.0075 -116.7231 71° East 134 154 10,400 -65 Level Los Angeles Center
Mon 02:46:26 PM 34.0217 -116.6850 66° East 128 147 10,300 52 Descending Los Angeles Center
Mon 02:47:20 PM 34.0375 -116.6533 59° Northeast 125 144 10,500 149 Climbing Los Angeles Center
Mon 02:48:27 PM 34.0558 -116.6106 63° Northeast 126 145 10,600 47 Climbing Los Angeles Center
Mon 02:49:28 PM 34.0728 -116.5731 61° Northeast 130 150 10,600  Level Los Angeles Center
Mon 02:50:28 PM 34.0864 -116.5286 70° East 132 152 10,600 -186 Level Los Angeles Center
Mon 02:51:37 PM 34.0992 -116.4792 73° East 131 151 10,200 -98 Descending Los Angeles Center
Mon 02:52:30 PM 34.1108 -116.4481 66° East 130 150 10,400 53 Climbing Los Angeles Center
Mon 02:53:30 PM 34.1244 -116.4036 70° East 130 150 10,300 -250 Descending Los Angeles Center
Mon 02:53:42 PM 34.1233 -116.3953 99° East 131 151 10,100 -98 Descending Los Angeles Center
Mon 02:54:31 PM 34.1303 -116.3639 75° East 125 144 10,200 97 Climbing Los Angeles Center
Mon 02:54:44 PM 34.1300 -116.3519 92° East 128 147 10,200 179 Level Los Angeles Center
Mon 02:55:38 PM 34.1333 -116.3194 83° East 116 133 10,400 158 Climbing Los Angeles Center
Mon 02:56:38 PM 34.1350 -116.2806 87° East 116 133 10,500  Climbing Los Angeles Center
Mon 02:56:48 PM 34.1350 -116.2728 90° East 118 136 10,400  Descending Los Angeles Center
Mon 02:57:39 PM 34.1392 -116.2436 80° East 116 133 10,500  Climbing Los Angeles Center
Mon 02:57:50 PM 34.1383 -116.2311 95° East 118 136 10,400 91 Descending Los Angeles Center
Mon 02:58:45 PM 34.1419 -116.1994 82° East 118 136 10,600 55 Climbing Los Angeles Center
Mon 02:59:40 PM 34.1461 -116.1625 82° East 119 137 10,500 -87 Descending Los Angeles Center
Mon 02:59:54 PM 34.1456 -116.1506 93° East 118 136 10,500 98 Level Los Angeles Center
Mon 03:00:41 PM 34.1478 -116.1236 84° East 119 137 10,600  Climbing Los Angeles Center
Mon 03:00:57 PM 34.1478 -116.1097 90° East 118 136 10,500  Descending Los Angeles Center
Mon 03:01:41 PM 34.1492 -116.0822 87° East 118 136 10,600  Climbing Los Angeles Center
Mon 03:01:59 PM 34.1497 -116.0711 87° East 118 136 10,500  Descending Los Angeles Center
Mon 03:03:01 PM 34.1522 -116.0297 86° East 118 136 10,600 48 Climbing Los Angeles Center
Mon 03:04:03 PM 34.1569 -115.9889 82° East 117 135 10,600  Level Los Angeles Center
Mon 03:05:05 PM 34.1611 -115.9508 82° East 117 135 10,600  Level Los Angeles Center
Mon 03:06:08 PM 34.1653 -115.9097 83° East 117 135 10,600 -48 Level Los Angeles Center
Mon 03:07:10 PM 34.1756 -115.8692 73° East 119 137 10,500 -48 Descending Los Angeles Center
Mon 03:08:12 PM 34.1842 -115.8264 76° East 120 138 10,500  Level Los Angeles Center
Mon 03:09:14 PM 34.1931 -115.7892 74° East 120 138 10,500  Level Los Angeles Center
Mon 03:10:16 PM 34.2017 -115.7483 76° East 118 136 10,500  Level Los Angeles Center
Mon 03:11:18 PM 34.2128 -115.7094 71° East 118 136 10,500 48 Level Los Angeles Center
Mon 03:12:21 PM 34.2225 -115.6711 73° East 118 136 10,600 48 Climbing Los Angeles Center
Mon 03:13:23 PM 34.2303 -115.6300 77° East 118 136 10,600  Level Los Angeles Center
Mon 03:14:25 PM 34.2364 -115.5883 80° East 118 136 10,600  Level Los Angeles Center
Mon 03:15:27 PM 34.2428 -115.5503 79° East 118 136 10,600 -97 Level Los Angeles Center
Mon 03:16:29 PM 34.2497 -115.5089 79° East 118 136 10,400 -48 Descending Los Angeles Center
Mon 03:17:32 PM 34.2564 -115.4686 79° East 118 136 10,500 48 Climbing Los Angeles Center
Mon 03:18:34 PM 34.2622 -115.4303 80° East 118 136 10,500 48 Level Los Angeles Center
Mon 03:19:36 PM 34.2697 -115.3894 77° East 118 136 10,600 97 Climbing Los Angeles Center
Mon 03:20:38 PM 34.2742 -115.3469 83° East 118 136 10,700  Climbing Los Angeles Center
Mon 03:21:40 PM 34.2825 -115.3072 76° East 121 139 10,600 -48 Descending Los Angeles Center
Mon 03:22:43 PM 34.2906 -115.2636 77° East 122 140 10,600 96 Level Los Angeles Center
Mon 03:23:45 PM 34.2978 -115.2197 79° East 123 142 10,800 97 Climbing Los Angeles Center
Mon 03:24:47 PM 34.3047 -115.1800 78° East 123 142 10,800  Level Los Angeles Center
Mon 03:25:49 PM 34.3058 -115.1375 88° East 121 139 10,800 48 Level Los Angeles Center
Mon 03:26:51 PM 34.3150 -115.0953 75° East 121 139 10,900 96 Climbing Los Angeles Center
Mon 03:27:54 PM 34.3206 -115.0556 80° East 121 139 11,000 48 Climbing Los Angeles Center
Mon 03:28:56 PM 34.3275 -115.0133 79° East 121 139 11,000 48 Level Los Angeles Center
Mon 03:29:58 PM 34.3333 -114.9708 81° East 121 139 11,100 48 Climbing Los Angeles Center
Mon 03:31:00 PM 34.3389 -114.9325 80° East 121 139 11,100 -48 Level Los Angeles Center
Mon 03:32:02 PM 34.3500 -114.8911 72° East 121 139 11,000 -48 Descending Los Angeles Center
Mon 03:33:05 PM 34.3542 -114.8494 83° East 120 138 11,000  Level Los Angeles Center
Mon 03:34:07 PM 34.3589 -114.8072 82° East 120 138 11,000  Level Los Angeles Center
Mon 03:35:09 PM 34.3633 -114.7672 82° East 120 138 11,000  Level Los Angeles Center
Mon 03:36:11 PM 34.3661 -114.7250 85° East 121 139 11,000 48 Level Los Angeles Center
Mon 03:37:13 PM 34.3739 -114.6836 77° East 123 142 11,100  Climbing Los Angeles Center
Mon 03:38:15 PM 34.3856 -114.6433 71° East 125 144 11,000 -143 Descending Los Angeles Center
Mon 03:39:19 PM 34.3969 -114.5994 73° East 132 152 10,800 -144 Descending Los Angeles Center
Mon 03:40:20 PM 34.4097 -114.5486 73° East 132 152 10,700 -98 Descending Los Angeles Center
Mon 03:41:22 PM 34.4178 -114.5058 77° East 132 152 10,600 -97 Descending Los Angeles Center
Mon 03:42:24 PM 34.4242 -114.4633 80° East 132 152 10,500 -47 Descending Los Angeles Center
Mon 03:43:29 PM 34.4258 -114.4244 87° East 132 152 10,500  Level Los Angeles Center
Mon 03:44:29 PM 34.4303 -114.3833 83° East 127 146 10,500 49 Level Los Angeles Center
Mon 03:45:31 PM 34.4372 -114.3444 78° East 125 144 10,600 97 Climbing Los Angeles Center
Mon 03:46:33 PM 34.4422 -114.2997 82° East 121 139 10,700 145 Climbing Los Angeles Center
Mon 03:47:35 PM 34.4444 -114.2622 86° East 119 137 10,900 97 Climbing Los Angeles Center
Mon 03:48:37 PM 34.4528 -114.2231 76° East 118 136 10,900 -48 Level Los Angeles Center
Mon 03:49:40 PM 34.4597 -114.1839 78° East 118 136 10,800  Descending Los Angeles Center
Mon 03:50:42 PM 34.4625 -114.1422 85° East 121 139 10,900 155 Climbing Los Angeles Center
Mon 03:51:36 PM 34.4683 -114.1061 79° East 118 136 11,100 103 Climbing Albuquerque Center
Mon 03:52:38 PM 34.4772 -114.0672 74° East 118 136 11,100 -145 Level Albuquerque Center
Mon 03:53:40 PM 34.4847 -114.0258 78° East 121 139 10,800 -195 Descending Albuquerque Center
Mon 03:54:41 PM 34.4889 -113.9847 83° East 122 140 10,700 -146 Descending Albuquerque Center
Mon 03:55:43 PM 34.4942 -113.9319 83° East 125 144 10,500 -194 Descending Albuquerque Center
Mon 03:56:45 PM 34.4981 -113.8872 84° East 129 148 10,300 -242 Descending Albuquerque Center
Mon 03:57:47 PM 34.5011 -113.8439 85° East 130 150 10,000 -195 Descending Albuquerque Center
Mon 03:58:48 PM 34.5025 -113.8008 88° East 130 150 9,900 -49 Descending Albuquerque Center
Mon 03:59:50 PM 34.5053 -113.7606 85° East 130 150 9,900  Level Albuquerque Center
Mon 04:00:52 PM 34.5094 -113.7214 83° East 125 144 9,900  Level Albuquerque Center
Mon 04:01:54 PM 34.5128 -113.6814 84° East 124 143 9,900  Level Albuquerque Center
Mon 04:02:55 PM 34.5147 -113.6447 86° East 122 140 9,900 49 Level Albuquerque Center
Mon 04:03:57 PM 34.5228 -113.5975 78° East 122 140 10,000  Climbing Albuquerque Center
Mon 04:04:59 PM 34.5256 -113.5572 85° East 122 140 9,900 -97 Descending Albuquerque Center
Mon 04:06:01 PM 34.5253 -113.5178 90° East 121 139 9,800  Descending Albuquerque Center
Mon 04:07:03 PM 34.5236 -113.4769 93° East 121 139 9,900  Climbing Albuquerque Center
Mon 04:08:04 PM 34.5200 -113.4347 96° East 121 139 9,800 -98 Descending Albuquerque Center
Mon 04:09:06 PM 34.5150 -113.3925 98° East 121 139 9,700 -97 Descending Albuquerque Center
Mon 04:10:08 PM 34.5108 -113.3419 96° East 122 140 9,600 -48 Descending Albuquerque Center
Mon 04:11:10 PM 34.5028 -113.3022 104° East 122 140 9,600 -49 Level Albuquerque Center
Mon 04:12:11 PM 34.5008 -113.2603 93° East 122 140 9,500 -98 Descending Albuquerque Center
Mon 04:13:13 PM 34.5022 -113.2172 88° East 123 142 9,400 48 Descending Albuquerque Center
Mon 04:14:15 PM 34.5000 -113.1756 94° East 123 142 9,600 97 Climbing Albuquerque Center
Mon 04:15:17 PM 34.4922 -113.1361 103° East 123 142 9,600  Level Albuquerque Center
Mon 04:16:18 PM 34.4892 -113.0967 95° East 123 142 9,600 98 Level Albuquerque Center
Mon 04:17:20 PM 34.4883 -113.0478 91° East 123 142 9,800 97 Climbing Albuquerque Center
Mon 04:18:22 PM 34.4864 -113.0061 93° East 123 142 9,800  Level Albuquerque Center
Mon 04:19:24 PM 34.4825 -112.9642 96° East 123 142 9,800  Level Albuquerque Center
Mon 04:20:25 PM 34.4828 -112.9225 90° East 123 142 9,800  Level Albuquerque Center
Mon 04:21:27 PM 34.4867 -112.8806 84° East 123 142 9,800 48 Level Albuquerque Center
Mon 04:22:29 PM 34.4875 -112.8375 89° East 123 142 9,900  Climbing Albuquerque Center
Mon 04:23:31 PM 34.4928 -112.7861 83° East 124 143 9,800 -49 Descending Albuquerque Center
Mon 04:24:32 PM 34.4967 -112.7444 84° East 124 143 9,800 98 Level Albuquerque Center
Mon 04:25:34 PM 34.5042 -112.7036 77° East 124 143 10,000  Climbing Albuquerque Center
Mon 04:26:36 PM 34.5106 -112.6617 80° East 124 143 9,800 -97 Descending Albuquerque Center
Mon 04:27:38 PM 34.5219 -112.6231 70° East 124 143 9,800 -97 Level Albuquerque Center
Mon 04:28:40 PM 34.5342 -112.5833 70° East 124 143 9,600 -146 Descending Albuquerque Center
Mon 04:29:41 PM 34.5447 -112.5422 73° East 125 144 9,500 -98 Descending Albuquerque Center
Mon 04:30:43 PM 34.5575 -112.4894 74° East 130 150 9,400 -97 Descending Albuquerque Center
Mon 04:31:45 PM 34.5633 -112.4478 80° East 130 150 9,300 -48 Descending Albuquerque Center
Mon 04:32:47 PM 34.5725 -112.4058 75° East 130 150 9,300 -97 Level Albuquerque Center
Mon 04:34:50 PM 34.5942 -112.3167 74° East 130 150 9,000 -130 Descending Albuquerque Center
Mon 04:35:52 PM 34.6025 -112.2742 77° East 130 150 8,900 -97 Descending Albuquerque Center
Mon 04:36:54 PM 34.6103 -112.2314 78° East 130 150 8,800 -146 Descending Albuquerque Center
Mon 04:37:55 PM 34.6208 -112.1894 73° East 130 150 8,600 -146 Descending Albuquerque Center
Mon 04:38:57 PM 34.6314 -112.1481 73° East 130 150 8,500 -48 Descending Albuquerque Center
Mon 04:39:59 PM 34.6428 -112.1092 70° East 130 150 8,500  Level Albuquerque Center

Login

Don't have an account? Register now (free) for customized features, flight alerts, and more!